Flag for France

Past Weather in 47°16'03.4"N, 2°12'02.9"W, France — Yesterday and Last 2 Weeks

Currently: 61 °F. Passing clouds. (Weather station: Nantes Airport, France). See more current weather

Past Weather in 47°16'03.4"N, 2°12'02.9"W — Graph

°F

47°16'03.4"N, 2°12'02.9"W Temperature Yesterday

Maximum temperature yesterday: 66 °F (at 3:00 pm)
Minimum temperature yesterday: 55 °F (at 1:00 am)
Average temperature yesterday: 61 °F

High & Low Weather Summary for the Past Weeks

 TemperatureHumidityPressure
High102 °F (Jun 18, 5:00 pm)100% (Jun 21, 1:00 am)30.21 "Hg (Jun 21, 1:00 am)
Low48 °F (Jun 28, 6:30 am)21% (Jun 18, 5:00 pm)29.68 "Hg (Jun 19, 5:30 am)
Average69 °F70%29.93 "Hg
* Reported Jun 15 10:30 am — Jun 30 10:00 am, 47°16'03.4"N, 2°12'02.9"W. Weather by CustomWeather, © 2022

Note: Actual official high and low records may vary slightly from our data, if they occured in-between our weather recording intervals... More about our weather records

47°16'03.4"N, 2°12'02.9"W Weather History for the Previous 24 Hours

Scroll right to see more
 ConditionsComfort  
Time TempWeatherWind HumidityBarometerVisibility
10:00 am
Thu, Jun 30
57 °FLight rain. Broken clouds.5 mph88%29.95 "HgN/A
9:30 am59 °FRain. Broken clouds.3 mph82%29.95 "HgN/A
9:00 am57 °FBroken clouds.2 mph94%29.95 "HgN/A
8:00 am55 °FHeavy rain. Partly sunny.3 mph94%29.95 "HgN/A
7:00 am54 °FCool.6 mph94%29.92 "HgN/A
6:30 am54 °FSunny.2 mph94%29.92 "Hg10 mi
6:00 am54 °FMostly cloudy.2 mph94%29.92 "HgN/A
5:30 am54 °FMostly cloudy.No wind94%29.92 "HgN/A
5:00 am55 °FClear.2 mph94%29.92 "Hg10 mi
4:30 am54 °FPassing clouds.5 mph100%29.92 "HgN/A
4:00 am54 °FPartly cloudy.3 mph94%29.92 "HgN/A
3:30 am55 °FClear.2 mph88%29.92 "Hg10 mi
3:00 am55 °FOvercast.5 mph94%29.92 "HgN/A
1:30 am54 °FPartly cloudy.2 mph94%29.95 "HgN/A
1:00 am54 °FMostly cloudy.2 mph94%29.95 "HgN/A
12:30 am55 °FClear.5 mph88%29.95 "Hg10 mi
12:00 am55 °FClear.3 mph88%29.95 "Hg10 mi
11:00 pm
Wed, Jun 29
57 °FClear.3 mph88%29.95 "Hg10 mi
10:30 pm57 °FPassing clouds.5 mph82%29.95 "HgN/A
10:00 pm59 °FPartly sunny.6 mph82%29.95 "HgN/A
9:00 pm63 °FMostly cloudy.8 mph73%29.95 "HgN/A
8:30 pm64 °FPassing clouds.12 mph68%29.92 "HgN/A
8:00 pm64 °FMild.9 mph68%29.95 "HgN/A
7:00 pm64 °FMild.8 mph64%29.95 "HgN/A
6:30 pm64 °FPartly sunny.9 mph60%29.95 "HgN/A
6:00 pm66 °FMostly cloudy.9 mph60%29.95 "HgN/A
5:30 pm66 °FBroken clouds.9 mph60%29.95 "HgN/A
5:00 pm66 °FPassing clouds.9 mph64%29.95 "HgN/A
4:00 pm66 °FOvercast.9 mph64%29.95 "HgN/A
3:30 pm66 °FMore clouds than sun.9 mph64%29.95 "HgN/A
3:00 pm66 °FOvercast.9 mph68%29.95 "HgN/A
2:00 pm64 °FPartly sunny.7 mph73%29.98 "HgN/A
1:00 pm64 °FPartly sunny.7 mph78%29.98 "HgN/A
12:30 pm63 °FMostly cloudy.6 mph88%29.98 "HgN/A
12:00 pm61 °FMore clouds than sun.6 mph88%29.98 "HgN/A
Weather by CustomWeather, © 2022

See weather overview